createdAt,value
2019-05-09T00:02:33.761Z,36.30
2019-05-09T00:05:03.709Z,32.43
2019-05-09T00:07:33.826Z,38.07
2019-05-09T00:10:04.013Z,31.07
2019-05-09T00:12:33.731Z,28.50
2019-05-09T00:15:04.467Z,30.93
2019-05-09T00:17:34.306Z,31.33
2019-05-09T00:20:10.847Z,32.43
2019-05-09T00:22:40.100Z,34.43
2019-05-09T00:25:10.340Z,29.20
2019-05-09T00:27:39.654Z,28.37
2019-05-09T00:30:09.195Z,34.70
2019-05-09T00:32:40.261Z,26.33
2019-05-09T00:35:26.637Z,27.83
2019-05-09T00:37:58.319Z,33.43
2019-05-09T00:40:27.761Z,29.20
2019-05-09T00:42:56.972Z,26.07
2019-05-09T00:45:45.198Z,27.20
2019-05-09T00:48:16.845Z,26.10
2019-05-09T00:50:46.111Z,29.47
2019-05-09T00:53:15.719Z,21.13
2019-05-09T00:55:45.606Z,22.40
2019-05-09T00:58:15.092Z,30.90
2019-05-09T01:00:45.069Z,25.90
2019-05-09T01:03:14.389Z,28.70
2019-05-09T01:05:44.117Z,25.57
2019-05-09T01:08:16.322Z,24.53
2019-05-09T01:10:45.636Z,25.00
2019-05-09T01:13:14.940Z,28.90
2019-05-09T01:15:44.359Z,26.03
2019-05-09T01:18:16.114Z,25.23
2019-05-09T01:20:45.344Z,23.87
2019-05-09T01:23:14.620Z,22.10
2019-05-09T01:25:43.965Z,22.80
2019-05-09T01:28:14.030Z,34.37
2019-05-09T01:30:43.952Z,22.87
2019-05-09T01:33:27.592Z,21.20
2019-05-09T01:35:57.259Z,22.10
2019-05-09T01:38:26.889Z,19.47
2019-05-09T01:40:56.405Z,23.20
2019-05-09T01:43:25.991Z,23.97
2019-05-09T01:45:55.566Z,20.90
2019-05-09T01:48:25.219Z,21.47
2019-05-09T01:50:54.475Z,24.40
2019-05-09T01:53:33.609Z,22.17
2019-05-09T01:56:03.849Z,21.17
2019-05-09T01:58:34.573Z,27.10
2019-05-09T02:01:06.499Z,23.90
2019-05-09T02:03:37.027Z,23.97
2019-05-09T02:06:06.778Z,22.77
2019-05-09T02:08:36.552Z,38.73
2019-05-09T02:11:05.782Z,28.13
2019-05-09T02:13:35.392Z,23.63
2019-05-09T02:16:36.082Z,23.90
2019-05-09T02:19:20.107Z,24.70
2019-05-09T02:21:49.838Z,26.03
2019-05-09T02:24:19.439Z,28.07
2019-05-09T02:26:48.692Z,26.13
2019-05-09T02:29:17.999Z,28.77
2019-05-09T02:31:47.630Z,31.63
2019-05-09T02:34:17.247Z,30.97
2019-05-09T02:36:49.488Z,26.60
2019-05-09T02:39:18.877Z,25.90
2019-05-09T02:42:00.989Z,30.80
2019-05-09T02:44:19.933Z,30.40
2019-05-09T02:47:14.039Z,26.47
2019-05-09T02:49:44.432Z,28.20
2019-05-09T02:52:13.990Z,30.70
2019-05-09T02:54:43.620Z,25.43
2019-05-09T02:57:12.911Z,30.47
2019-05-09T03:00:10.776Z,25.70
2019-05-09T03:02:59.518Z,25.70
2019-05-09T03:05:30.405Z,26.30
2019-05-09T03:07:59.920Z,27.80
2019-05-09T03:10:29.703Z,29.80
2019-05-09T03:12:59.663Z,25.63
2019-05-09T03:15:29.533Z,24.83
2019-05-09T03:18:00.135Z,29.10
2019-05-09T03:21:08.988Z,27.40
2019-05-09T03:23:38.916Z,29.83
2019-05-09T03:26:10.363Z,26.03
2019-05-09T03:29:04.483Z,25.43
2019-05-09T03:31:34.271Z,29.23
2019-05-09T03:34:03.545Z,22.93
2019-05-09T03:36:33.567Z,26.90
2019-05-09T03:39:03.116Z,23.57
2019-05-09T03:41:32.685Z,23.17
2019-05-09T03:44:02.331Z,22.70
2019-05-09T03:46:51.739Z,22.17
2019-05-09T03:49:22.191Z,22.90
2019-05-09T03:51:51.430Z,23.73
2019-05-09T03:54:21.003Z,21.90
2019-05-09T03:56:57.235Z,28.57
2019-05-09T03:59:27.866Z,24.23
2019-05-09T04:01:59.038Z,26.70
2019-05-09T04:04:29.836Z,30.60
2019-05-09T04:07:00.863Z,28.20
2019-05-09T04:09:30.093Z,22.50
2019-05-09T04:12:00.299Z,29.23
2019-05-09T04:14:32.635Z,25.97
2019-05-09T04:17:02.252Z,24.80
2019-05-09T04:19:33.249Z,27.77
2019-05-09T04:22:02.596Z,25.70
2019-05-09T04:24:34.099Z,31.13
2019-05-09T04:27:10.335Z,26.03
2019-05-09T04:29:41.599Z,28.17
2019-05-09T04:32:11.256Z,26.50
2019-05-09T04:34:40.942Z,25.50
2019-05-09T04:37:12.090Z,27.30
2019-05-09T04:39:41.268Z,22.53
2019-05-09T04:42:10.911Z,19.17
2019-05-09T04:45:03.206Z,21.87
2019-05-09T04:47:29.212Z,25.73
2019-05-09T04:49:58.517Z,21.67
2019-05-09T04:52:28.083Z,19.95
2019-05-09T04:54:58.442Z,22.43
2019-05-09T04:57:27.928Z,16.13
2019-05-09T04:59:57.585Z,22.20
2019-05-09T05:02:48.463Z,19.47
2019-05-09T05:05:18.195Z,17.03
2019-05-09T05:07:48.164Z,14.90
2019-05-09T05:10:18.410Z,19.50
2019-05-09T05:12:48.427Z,17.43
2019-05-09T05:15:20.328Z,13.70
2019-05-09T05:17:48.865Z,13.00
2019-05-09T05:20:21.948Z,20.80
2019-05-09T05:22:58.140Z,12.80
2019-05-09T05:25:28.146Z,16.20
2019-05-09T05:27:58.189Z,11.87
2019-05-09T05:30:28.470Z,11.90
2019-05-09T05:33:02.032Z,13.67
2019-05-09T05:35:37.761Z,15.67
2019-05-09T05:38:08.499Z,14.43
2019-05-09T05:40:45.671Z,12.53
2019-05-09T05:43:09.092Z,11.03
2019-05-09T05:45:51.316Z,12.87
2019-05-09T05:48:24.237Z,15.27
2019-05-09T05:50:53.515Z,8.50
2019-05-09T05:53:22.789Z,11.27
2019-05-09T05:55:52.773Z,11.80
2019-05-09T05:58:22.252Z,8.73
2019-05-09T06:00:53.748Z,10.23
2019-05-09T06:03:24.105Z,11.07
2019-05-09T06:05:53.705Z,8.43
2019-05-09T06:08:22.992Z,8.80
2019-05-09T06:10:52.215Z,6.60
2019-05-09T06:13:21.846Z,4.93
2019-05-09T06:15:53.067Z,5.63
2019-05-09T06:18:22.583Z,6.20
2019-05-09T06:20:51.900Z,9.10
2019-05-09T06:23:21.440Z,11.23
2019-05-09T06:25:50.705Z,7.47
2019-05-09T06:28:20.511Z,11.00
2019-05-09T06:30:49.827Z,5.70
2019-05-09T06:33:19.044Z,8.87
2019-05-09T06:35:48.681Z,4.47
2019-05-09T06:38:18.893Z,6.87
2019-05-09T06:40:48.249Z,17.90
2019-05-09T06:43:18.736Z,8.80
2019-05-09T06:46:22.671Z,7.90
2019-05-09T06:48:52.281Z,6.00
2019-05-09T06:51:21.541Z,5.37
2019-05-09T06:53:50.782Z,5.60
2019-05-09T06:56:20.414Z,5.10
2019-05-09T06:58:49.758Z,5.17
2019-05-09T07:01:37.957Z,4.37
2019-05-09T07:04:12.370Z,5.77
2019-05-09T07:06:50.268Z,4.87
2019-05-09T07:09:27.997Z,4.33
2019-05-09T07:11:58.611Z,6.70
2019-05-09T07:14:32.344Z,7.90
2019-05-09T07:16:59.958Z,6.58
2019-05-09T07:19:29.679Z,5.90
2019-05-09T07:22:21.260Z,5.07
2019-05-09T07:25:21.730Z,8.73
2019-05-09T07:27:51.443Z,7.73
2019-05-09T07:30:43.013Z,6.03
2019-05-09T07:33:34.617Z,5.20
2019-05-09T07:36:03.912Z,7.37
2019-05-09T07:38:33.443Z,9.20
2019-05-09T07:41:02.813Z,6.20
2019-05-09T07:43:32.083Z,8.43
2019-05-09T07:46:05.544Z,7.37
2019-05-09T07:48:38.060Z,4.50
2019-05-09T07:51:08.025Z,7.13
2019-05-09T07:53:38.180Z,4.70
2019-05-09T07:56:08.655Z,4.03
2019-05-09T07:58:39.280Z,5.27
2019-05-09T08:01:08.869Z,6.50
2019-05-09T08:03:38.633Z,8.17
2019-05-09T08:06:08.976Z,6.80
2019-05-09T08:08:38.741Z,6.07
2019-05-09T08:11:09.080Z,5.10
2019-05-09T08:13:39.744Z,7.50
2019-05-09T08:16:14.130Z,6.57
2019-05-09T08:18:40.520Z,7.17
2019-05-09T08:21:09.790Z,8.60
2019-05-09T08:23:39.414Z,9.20
2019-05-09T08:26:09.078Z,8.53
2019-05-09T08:28:39.206Z,10.20
2019-05-09T08:31:08.641Z,9.40
2019-05-09T08:33:38.328Z,8.00
2019-05-09T08:36:08.858Z,10.33
2019-05-09T08:38:39.113Z,9.33
2019-05-09T08:41:09.784Z,11.03
2019-05-09T08:43:40.664Z,11.47
2019-05-09T08:46:10.204Z,10.30
2019-05-09T08:48:40.869Z,9.90
2019-05-09T08:51:14.044Z,10.20
2019-05-09T08:53:43.314Z,8.60
2019-05-09T08:56:13.162Z,6.73
2019-05-09T08:58:42.896Z,8.80
2019-05-09T09:01:13.197Z,12.87
2019-05-09T09:03:42.509Z,11.30
2019-05-09T09:06:11.906Z,15.17
2019-05-09T09:08:43.011Z,15.33
2019-05-09T09:11:13.492Z,13.80
2019-05-09T09:13:43.101Z,10.20
2019-05-09T09:16:18.709Z,13.87
2019-05-09T09:18:44.786Z,19.03
2019-05-09T09:21:14.054Z,14.30
2019-05-09T09:23:47.177Z,11.20
2019-05-09T09:26:15.066Z,16.85
2019-05-09T09:28:48.483Z,11.40
2019-05-09T09:31:18.126Z,17.47
2019-05-09T09:33:48.139Z,16.30
2019-05-09T09:36:18.003Z,19.77
2019-05-09T09:38:48.163Z,12.30
2019-05-09T09:41:19.219Z,15.07
2019-05-09T09:43:48.458Z,13.20
2019-05-09T09:46:18.324Z,17.33
2019-05-09T09:48:48.157Z,17.77
2019-05-09T09:51:18.693Z,15.23
2019-05-09T09:53:49.068Z,13.67
2019-05-09T09:56:22.393Z,20.70
2019-05-09T09:59:00.952Z,16.00
2019-05-09T10:01:33.636Z,24.27
2019-05-09T10:04:20.678Z,23.93
2019-05-09T10:06:48.074Z,18.23
2019-05-09T10:09:17.620Z,17.63
2019-05-09T10:11:48.298Z,14.27
2019-05-09T10:14:28.354Z,15.57
2019-05-09T10:17:17.963Z,20.93
2019-05-09T10:19:55.027Z,19.00
2019-05-09T10:22:26.199Z,16.67
2019-05-09T10:24:58.620Z,21.93
2019-05-09T10:27:28.352Z,14.43
2019-05-09T10:29:57.858Z,14.20
2019-05-09T10:32:28.864Z,17.00
2019-05-09T10:34:58.314Z,11.60
2019-05-09T10:37:27.857Z,15.90
2019-05-09T10:39:58.043Z,13.40
2019-05-09T10:42:48.130Z,16.23
2019-05-09T10:45:40.707Z,14.50
2019-05-09T10:48:09.815Z,13.53
2019-05-09T10:50:44.283Z,11.57
2019-05-09T10:53:10.765Z,18.40
2019-05-09T10:56:40.833Z,18.97
2019-05-09T10:59:10.049Z,11.00
2019-05-09T11:01:39.321Z,11.60
2019-05-09T11:04:08.599Z,16.23
2019-05-09T11:06:38.557Z,12.97
2019-05-09T11:09:09.343Z,35.20
2019-05-09T11:11:38.849Z,13.50
2019-05-09T11:14:08.766Z,13.57
2019-05-09T11:16:45.961Z,12.97
2019-05-09T11:19:09.567Z,15.50
2019-05-09T11:21:39.396Z,13.03
2019-05-09T11:24:11.397Z,19.00
2019-05-09T11:26:40.649Z,20.40
2019-05-09T11:29:11.432Z,15.37
2019-05-09T11:31:40.705Z,17.30
2019-05-09T11:34:11.863Z,16.70
2019-05-09T11:36:44.036Z,22.20
2019-05-09T11:39:13.286Z,17.77
2019-05-09T11:41:44.900Z,19.73
2019-05-09T11:44:14.181Z,18.07
2019-05-09T11:46:43.430Z,19.70
2019-05-09T11:49:13.014Z,18.53
2019-05-09T11:51:42.619Z,19.23
2019-05-09T11:54:11.910Z,19.13
2019-05-09T11:56:41.266Z,23.10
2019-05-09T11:59:10.618Z,18.43
2019-05-09T12:01:40.052Z,17.87
2019-05-09T12:04:12.122Z,17.37
2019-05-09T12:06:43.739Z,33.83
2019-05-09T12:09:14.787Z,16.70
2019-05-09T12:11:44.869Z,19.30
2019-05-09T12:14:14.325Z,20.50
2019-05-09T12:16:47.822Z,20.30
2019-05-09T12:19:17.985Z,16.43
2019-05-09T12:21:48.407Z,20.50
2019-05-09T12:24:18.623Z,15.93
2019-05-09T12:26:48.434Z,15.10
2019-05-09T12:29:19.698Z,15.20
2019-05-09T12:31:48.866Z,15.40
2019-05-09T12:34:19.277Z,16.10
2019-05-09T12:36:49.649Z,18.10
2019-05-09T12:39:20.981Z,15.77
2019-05-09T12:41:51.040Z,24.87
2019-05-09T12:44:24.935Z,14.93
2019-05-09T12:46:53.280Z,14.43
2019-05-09T12:49:22.616Z,14.10
2019-05-09T12:51:51.829Z,12.27
2019-05-09T12:54:22.870Z,13.33
2019-05-09T12:56:52.214Z,12.73
2019-05-09T12:59:21.898Z,12.13
2019-05-09T13:01:51.631Z,13.57
2019-05-09T13:04:21.138Z,13.07
2019-05-09T13:06:50.732Z,12.97
2019-05-09T13:09:19.918Z,15.43
2019-05-09T13:11:49.227Z,14.83
2019-05-09T13:14:19.247Z,18.93
2019-05-09T13:17:17.955Z,12.03
2019-05-09T13:19:48.657Z,13.33
2019-05-09T13:22:18.494Z,12.47
2019-05-09T13:24:47.892Z,13.10
2019-05-09T13:27:18.928Z,17.40
2019-05-09T13:29:49.283Z,11.30
2019-05-09T13:32:19.030Z,13.10
2019-05-09T13:34:48.895Z,11.87
2019-05-09T13:37:18.876Z,10.67
2019-05-09T13:39:50.024Z,11.10
2019-05-09T13:42:20.895Z,11.60
2019-05-09T13:44:50.591Z,11.43
2019-05-09T13:47:19.840Z,12.30
2019-05-09T13:49:50.920Z,14.43
2019-05-09T13:52:20.158Z,13.97
2019-05-09T13:54:49.651Z,13.90
2019-05-09T13:57:19.031Z,12.93
2019-05-09T13:59:49.929Z,13.23
2019-05-09T14:02:19.513Z,14.83
2019-05-09T14:04:49.079Z,13.90
2019-05-09T14:07:19.396Z,13.80
2019-05-09T14:09:48.876Z,18.00
2019-05-09T14:12:18.459Z,14.97
2019-05-09T14:14:47.849Z,14.90
2019-05-09T14:17:19.197Z,13.70
2019-05-09T14:19:51.146Z,12.40
2019-05-09T14:22:20.903Z,13.10
2019-05-09T14:24:50.143Z,12.80
2019-05-09T14:27:22.929Z,14.53
2019-05-09T14:29:52.216Z,14.83
2019-05-09T14:32:21.890Z,14.30
2019-05-09T14:34:51.392Z,13.63
2019-05-09T14:37:20.667Z,13.50
2019-05-09T14:39:58.396Z,14.27
2019-05-09T14:42:21.447Z,14.67
2019-05-09T14:44:50.703Z,14.10
2019-05-09T14:47:21.839Z,15.97
2019-05-09T14:49:51.601Z,15.83
2019-05-09T14:52:21.238Z,14.63
2019-05-09T14:54:51.226Z,13.80
2019-05-09T14:57:22.702Z,18.30
2019-05-09T14:59:51.973Z,21.10
2019-05-09T15:02:22.837Z,13.10
2019-05-09T15:04:52.374Z,14.57
2019-05-09T15:07:21.621Z,13.07
2019-05-09T15:09:54.020Z,13.93
2019-05-09T15:12:23.429Z,19.90
2019-05-09T15:14:54.941Z,12.03
2019-05-09T15:17:24.543Z,11.97
2019-05-09T15:20:00.069Z,13.50
2019-05-09T15:22:24.867Z,13.07
2019-05-09T15:24:54.101Z,13.83
2019-05-09T15:27:25.142Z,12.37
2019-05-09T15:29:58.481Z,12.87
2019-05-09T15:32:27.982Z,14.30
2019-05-09T15:34:59.634Z,12.53
2019-05-09T15:37:29.525Z,14.47
2019-05-09T15:39:59.081Z,14.50
2019-05-09T15:42:30.553Z,11.67
2019-05-09T15:45:00.447Z,13.30
2019-05-09T15:47:34.738Z,9.33
2019-05-09T15:50:16.571Z,8.30
2019-05-09T15:52:38.236Z,9.27
2019-05-09T15:55:09.451Z,15.20
2019-05-09T15:57:38.805Z,9.97
2019-05-09T16:00:09.975Z,7.10
2019-05-09T16:02:39.394Z,10.70
2019-05-09T16:05:10.577Z,10.40
2019-05-09T16:07:40.064Z,9.30
2019-05-09T16:10:09.962Z,9.83
2019-05-09T16:12:39.623Z,9.70
2019-05-09T16:15:10.597Z,7.60
2019-05-09T16:17:40.462Z,8.83
2019-05-09T16:20:10.205Z,6.93
2019-05-09T16:22:39.814Z,6.30
2019-05-09T16:25:10.203Z,6.20
2019-05-09T16:27:40.709Z,5.80
2019-05-09T16:30:10.538Z,6.17
2019-05-09T16:32:40.791Z,6.40
2019-05-09T16:35:10.291Z,6.70
2019-05-09T16:37:56.954Z,5.40
2019-05-09T16:40:10.928Z,3.43
2019-05-09T16:42:40.267Z,5.37
2019-05-09T16:45:10.379Z,3.77
2019-05-09T16:47:41.465Z,4.13
2019-05-09T16:50:12.352Z,4.93
2019-05-09T16:52:43.741Z,3.27
2019-05-09T16:55:18.119Z,2.70
2019-05-09T16:57:48.155Z,4.67
2019-05-09T17:00:31.666Z,5.57
2019-05-09T17:03:02.741Z,3.57
2019-05-09T17:05:33.792Z,3.60
2019-05-09T17:08:03.125Z,4.40
2019-05-09T17:10:32.817Z,4.33
2019-05-09T17:13:02.096Z,4.70
2019-05-09T17:15:31.341Z,3.67
2019-05-09T17:18:00.632Z,4.73
2019-05-09T17:20:40.600Z,5.50
2019-05-09T17:23:17.806Z,4.60
2019-05-09T17:25:48.013Z,10.30
2019-05-09T17:28:18.030Z,5.83
2019-05-09T17:30:49.719Z,10.80
2019-05-09T17:33:19.361Z,10.93
2019-05-09T17:35:50.792Z,16.27
2019-05-09T17:38:20.451Z,9.60
2019-05-09T17:40:50.220Z,27.83
2019-05-09T17:43:20.133Z,8.43
2019-05-09T17:45:49.439Z,12.27
2019-05-09T17:48:21.117Z,13.70
2019-05-09T17:50:51.379Z,10.50
2019-05-09T17:53:21.219Z,10.47
2019-05-09T17:55:52.659Z,14.10
2019-05-09T17:58:29.242Z,9.20
2019-05-09T18:00:53.439Z,12.20
2019-05-09T18:03:23.123Z,16.40
2019-05-09T18:05:52.374Z,10.03
2019-05-09T18:08:22.155Z,12.80
2019-05-09T18:10:53.451Z,16.87
2019-05-09T18:13:23.755Z,14.57
2019-05-09T18:15:53.428Z,15.50
2019-05-09T18:18:22.696Z,16.03
2019-05-09T18:20:52.563Z,14.40
2019-05-09T18:23:24.097Z,17.60
2019-05-09T18:25:53.327Z,16.40
2019-05-09T18:28:24.261Z,14.37
2019-05-09T18:30:53.558Z,16.83
2019-05-09T18:33:41.762Z,16.33
2019-05-09T18:36:11.317Z,13.97
2019-05-09T18:38:40.715Z,17.90
2019-05-09T18:41:10.346Z,12.73
2019-05-09T18:43:41.663Z,13.53
2019-05-09T18:46:12.465Z,17.90
2019-05-09T18:48:42.111Z,13.33
2019-05-09T18:51:12.379Z,18.80
2019-05-09T18:53:42.041Z,15.50
2019-05-09T18:56:11.680Z,13.40
2019-05-09T18:58:41.306Z,13.57
2019-05-09T19:01:11.188Z,10.27
2019-05-09T19:03:40.802Z,12.70
2019-05-09T19:06:11.029Z,15.37
2019-05-09T19:08:40.301Z,11.70
2019-05-09T19:11:11.695Z,13.83
2019-05-09T19:13:42.308Z,12.03
2019-05-09T19:16:40.345Z,10.93
2019-05-09T19:19:19.632Z,14.60
2019-05-09T19:21:52.840Z,12.67
2019-05-09T19:24:22.392Z,12.63
2019-05-09T19:26:53.070Z,17.53
2019-05-09T19:29:23.820Z,16.37
2019-05-09T19:31:53.246Z,14.93
2019-05-09T19:34:43.310Z,14.67
2019-05-09T19:37:13.394Z,15.00
2019-05-09T19:39:43.885Z,17.40
2019-05-09T19:42:14.327Z,16.83
2019-05-09T19:44:43.957Z,9.03
2019-05-09T19:47:14.526Z,9.90
2019-05-09T19:49:43.808Z,11.77
2019-05-09T19:52:13.571Z,16.00
2019-05-09T19:54:44.926Z,15.60
2019-05-09T19:57:16.506Z,17.50
2019-05-09T19:59:45.783Z,14.63
2019-05-09T20:02:18.685Z,20.10
2019-05-09T20:04:50.212Z,14.73
2019-05-09T20:07:19.471Z,15.13
2019-05-09T20:09:54.441Z,15.57
2019-05-09T20:12:42.903Z,13.07
2019-05-09T20:15:14.905Z,16.83
2019-05-09T20:17:44.516Z,14.70
2019-05-09T20:20:13.911Z,16.03
2019-05-09T20:22:52.414Z,14.83
2019-05-09T20:25:15.700Z,16.47
2019-05-09T20:27:44.977Z,15.17
2019-05-09T20:30:15.720Z,15.40
2019-05-09T20:32:45.360Z,17.37
2019-05-09T20:35:14.902Z,19.77
2019-05-09T20:37:44.489Z,19.67
2019-05-09T20:40:14.438Z,23.43
2019-05-09T20:42:44.483Z,22.37
2019-05-09T20:45:14.452Z,19.90
2019-05-09T20:47:44.295Z,21.43
2019-05-09T20:50:13.888Z,17.77
2019-05-09T20:52:43.312Z,23.47
2019-05-09T20:55:15.207Z,23.10
2019-05-09T20:57:45.794Z,22.37
2019-05-09T21:00:15.213Z,22.37
2019-05-09T21:02:45.102Z,28.23
2019-05-09T21:05:15.126Z,21.30
2019-05-09T21:07:44.859Z,23.83
2019-05-09T21:10:14.418Z,26.40
2019-05-09T21:12:43.971Z,23.23
2019-05-09T21:15:13.901Z,22.53
2019-05-09T21:17:44.333Z,23.50
2019-05-09T21:20:14.153Z,25.08
2019-05-09T21:22:44.045Z,31.83
2019-05-09T21:25:13.481Z,30.60
2019-05-09T21:27:43.384Z,29.53
2019-05-09T21:30:13.139Z,25.50
2019-05-09T21:32:42.653Z,27.83
2019-05-09T21:35:13.741Z,24.10
2019-05-09T21:37:43.012Z,23.60
2019-05-09T21:40:12.501Z,26.30
2019-05-09T21:42:41.829Z,25.07
2019-05-09T21:45:12.429Z,26.10
2019-05-09T21:47:42.824Z,29.63
2019-05-09T21:50:12.530Z,31.03
2019-05-09T21:52:42.242Z,31.47
2019-05-09T21:55:11.495Z,31.67
2019-05-09T21:57:41.031Z,29.20
2019-05-09T22:00:14.487Z,25.90
2019-05-09T22:02:43.768Z,23.53
2019-05-09T22:05:14.073Z,23.33
2019-05-09T22:07:44.487Z,25.87
2019-05-09T22:10:15.466Z,25.83
2019-05-09T22:12:46.557Z,26.03
2019-05-09T22:15:17.434Z,20.60
2019-05-09T22:17:47.695Z,23.73
2019-05-09T22:20:17.847Z,19.17
2019-05-09T22:22:47.135Z,21.00
2019-05-09T22:25:16.633Z,20.00
2019-05-09T22:27:46.395Z,19.67
2019-05-09T22:30:18.339Z,21.33
2019-05-09T22:32:47.678Z,28.87
2019-05-09T22:35:18.815Z,15.17
2019-05-09T22:37:49.116Z,18.67
2019-05-09T22:40:18.663Z,15.93
2019-05-09T22:42:49.876Z,19.50
2019-05-09T22:45:21.019Z,17.87
2019-05-09T22:47:51.661Z,17.67
2019-05-09T22:50:20.973Z,21.73
2019-05-09T22:52:51.424Z,17.20
2019-05-09T22:55:20.691Z,23.20
2019-05-09T22:57:51.844Z,18.70
2019-05-09T23:00:21.412Z,21.03
2019-05-09T23:02:50.714Z,21.50
2019-05-09T23:05:19.951Z,25.10
2019-05-09T23:07:49.552Z,20.10
2019-05-09T23:10:19.916Z,24.27
2019-05-09T23:12:51.205Z,16.73
2019-05-09T23:15:21.045Z,19.90
2019-05-09T23:17:50.716Z,21.93
2019-05-09T23:20:38.335Z,21.87
2019-05-09T23:23:28.000Z,23.30
2019-05-09T23:25:59.334Z,24.00
2019-05-09T23:28:28.933Z,20.20
2019-05-09T23:31:00.735Z,23.83
2019-05-09T23:33:34.663Z,25.27
2019-05-09T23:36:04.290Z,24.70
2019-05-09T23:38:33.967Z,27.73
2019-05-09T23:41:03.919Z,21.40
2019-05-09T23:43:33.166Z,28.40
2019-05-09T23:46:04.278Z,24.17
2019-05-09T23:48:34.651Z,30.13
2019-05-09T23:51:03.891Z,28.33
2019-05-09T23:53:37.420Z,28.73
2019-05-09T23:56:25.843Z,28.98
2019-05-09T23:59:13.534Z,31.07
